sensor_id;sensor_type;location;lat;lon;timestamp;P1;durP1;ratioP1;P2;durP2;ratioP2
42260;SDS011;27926;48.062;7.474;2022-11-23T00:01:17;8.98;;;2.33;;
42260;SDS011;27926;48.062;7.474;2022-11-23T00:03:44;12.40;;;1.88;;
42260;SDS011;27926;48.062;7.474;2022-11-23T00:06:10;14.15;;;2.33;;
42260;SDS011;27926;48.062;7.474;2022-11-23T00:08:35;14.77;;;2.85;;
42260;SDS011;27926;48.062;7.474;2022-11-23T00:11:00;9.38;;;1.98;;
42260;SDS011;27926;48.062;7.474;2022-11-23T00:13:24;10.13;;;2.08;;
42260;SDS011;27926;48.062;7.474;2022-11-23T00:15:49;7.18;;;2.00;;
42260;SDS011;27926;48.062;7.474;2022-11-23T00:18:14;5.05;;;1.85;;
42260;SDS011;27926;48.062;7.474;2022-11-23T00:20:39;9.43;;;2.33;;
42260;SDS011;27926;48.062;7.474;2022-11-23T00:23:03;12.82;;;1.70;;
42260;SDS011;27926;48.062;7.474;2022-11-23T00:25:28;13.63;;;1.98;;
42260;SDS011;27926;48.062;7.474;2022-11-23T00:27:52;16.92;;;2.35;;
42260;SDS011;27926;48.062;7.474;2022-11-23T00:30:17;8.68;;;2.45;;
42260;SDS011;27926;48.062;7.474;2022-11-23T00:32:42;18.02;;;2.17;;
42260;SDS011;27926;48.062;7.474;2022-11-23T00:35:06;12.65;;;2.25;;
42260;SDS011;27926;48.062;7.474;2022-11-23T00:37:31;7.80;;;2.55;;
42260;SDS011;27926;48.062;7.474;2022-11-23T00:39:56;9.43;;;2.33;;
42260;SDS011;27926;48.062;7.474;2022-11-23T00:42:20;7.53;;;1.88;;
42260;SDS011;27926;48.062;7.474;2022-11-23T00:44:45;17.80;;;2.60;;
42260;SDS011;27926;48.062;7.474;2022-11-23T00:47:09;12.15;;;3.30;;
42260;SDS011;27926;48.062;7.474;2022-11-23T00:49:34;10.80;;;2.85;;
42260;SDS011;27926;48.062;7.474;2022-11-23T00:51:59;18.08;;;3.42;;
42260;SDS011;27926;48.062;7.474;2022-11-23T00:54:23;6.53;;;1.67;;
42260;SDS011;27926;48.062;7.474;2022-11-23T00:56:48;13.38;;;2.88;;
42260;SDS011;27926;48.062;7.474;2022-11-23T00:59:12;12.63;;;2.75;;
42260;SDS011;27926;48.062;7.474;2022-11-23T01:01:37;8.40;;;2.28;;
42260;SDS011;27926;48.062;7.474;2022-11-23T01:04:04;13.55;;;2.60;;
42260;SDS011;27926;48.062;7.474;2022-11-23T01:06:30;5.18;;;1.70;;
42260;SDS011;27926;48.062;7.474;2022-11-23T01:08:59;11.30;;;2.40;;
42260;SDS011;27926;48.062;7.474;2022-11-23T01:11:28;8.90;;;2.20;;
42260;SDS011;27926;48.062;7.474;2022-11-23T01:13:54;10.60;;;2.00;;
42260;SDS011;27926;48.062;7.474;2022-11-23T01:16:23;9.55;;;2.53;;
42260;SDS011;27926;48.062;7.474;2022-11-23T01:21:18;23.88;;;2.35;;
42260;SDS011;27926;48.062;7.474;2022-11-23T01:23:43;7.38;;;1.92;;
42260;SDS011;27926;48.062;7.474;2022-11-23T01:26:08;5.38;;;2.50;;
42260;SDS011;27926;48.062;7.474;2022-11-23T01:28:33;9.98;;;2.08;;
42260;SDS011;27926;48.062;7.474;2022-11-23T01:31:03;9.13;;;2.50;;
42260;SDS011;27926;48.062;7.474;2022-11-23T01:33:32;15.20;;;2.20;;
42260;SDS011;27926;48.062;7.474;2022-11-23T01:35:57;11.65;;;2.50;;
42260;SDS011;27926;48.062;7.474;2022-11-23T01:38:21;9.65;;;2.75;;
42260;SDS011;27926;48.062;7.474;2022-11-23T01:40:46;3.38;;;1.77;;
42260;SDS011;27926;48.062;7.474;2022-11-23T01:43:13;14.10;;;2.30;;
42260;SDS011;27926;48.062;7.474;2022-11-23T01:45:40;8.23;;;2.70;;
42260;SDS011;27926;48.062;7.474;2022-11-23T01:48:15;11.23;;;3.38;;
42260;SDS011;27926;48.062;7.474;2022-11-23T01:50:43;8.85;;;1.60;;
42260;SDS011;27926;48.062;7.474;2022-11-23T01:53:09;16.50;;;2.30;;
42260;SDS011;27926;48.062;7.474;2022-11-23T01:55:34;8.07;;;2.00;;
42260;SDS011;27926;48.062;7.474;2022-11-23T01:58:02;7.47;;;2.13;;
42260;SDS011;27926;48.062;7.474;2022-11-23T02:00:29;11.70;;;2.63;;
42260;SDS011;27926;48.062;7.474;2022-11-23T02:02:54;6.03;;;2.00;;
42260;SDS011;27926;48.062;7.474;2022-11-23T02:05:22;14.98;;;2.58;;
42260;SDS011;27926;48.062;7.474;2022-11-23T02:07:52;8.80;;;2.33;;
42260;SDS011;27926;48.062;7.474;2022-11-23T02:10:17;13.20;;;2.17;;
42260;SDS011;27926;48.062;7.474;2022-11-23T02:12:43;11.48;;;2.00;;
42260;SDS011;27926;48.062;7.474;2022-11-23T02:15:07;12.60;;;2.58;;
42260;SDS011;27926;48.062;7.474;2022-11-23T02:17:32;13.70;;;2.40;;
42260;SDS011;27926;48.062;7.474;2022-11-23T02:20:06;8.40;;;2.05;;
42260;SDS011;27926;48.062;7.474;2022-11-23T02:22:40;4.82;;;1.40;;
42260;SDS011;27926;48.062;7.474;2022-11-23T02:25:12;10.05;;;2.38;;
42260;SDS011;27926;48.062;7.474;2022-11-23T02:27:53;12.15;;;2.78;;
42260;SDS011;27926;48.062;7.474;2022-11-23T02:30:18;16.83;;;2.38;;
42260;SDS011;27926;48.062;7.474;2022-11-23T02:32:43;12.80;;;2.35;;
42260;SDS011;27926;48.062;7.474;2022-11-23T02:35:09;7.35;;;1.75;;
42260;SDS011;27926;48.062;7.474;2022-11-23T02:37:35;3.50;;;1.40;;
42260;SDS011;27926;48.062;7.474;2022-11-23T02:40:00;15.97;;;3.00;;
42260;SDS011;27926;48.062;7.474;2022-11-23T02:42:32;9.98;;;2.10;;
42260;SDS011;27926;48.062;7.474;2022-11-23T02:47:50;12.38;;;2.28;;
42260;SDS011;27926;48.062;7.474;2022-11-23T02:50:15;11.25;;;2.38;;
42260;SDS011;27926;48.062;7.474;2022-11-23T02:52:39;14.63;;;2.13;;
42260;SDS011;27926;48.062;7.474;2022-11-23T02:55:05;7.50;;;1.88;;
42260;SDS011;27926;48.062;7.474;2022-11-23T02:57:30;3.83;;;1.42;;
42260;SDS011;27926;48.062;7.474;2022-11-23T02:59:55;4.22;;;1.83;;
42260;SDS011;27926;48.062;7.474;2022-11-23T03:02:19;6.20;;;2.10;;
42260;SDS011;27926;48.062;7.474;2022-11-23T03:04:45;11.43;;;2.00;;
42260;SDS011;27926;48.062;7.474;2022-11-23T03:07:09;10.98;;;2.38;;
42260;SDS011;27926;48.062;7.474;2022-11-23T03:09:34;10.38;;;2.15;;
42260;SDS011;27926;48.062;7.474;2022-11-23T03:11:58;9.32;;;2.10;;
42260;SDS011;27926;48.062;7.474;2022-11-23T03:14:23;8.43;;;2.50;;
42260;SDS011;27926;48.062;7.474;2022-11-23T03:16:48;9.00;;;4.22;;
42260;SDS011;27926;48.062;7.474;2022-11-23T03:19:13;24.17;;;5.78;;
42260;SDS011;27926;48.062;7.474;2022-11-23T03:21:37;9.35;;;5.82;;
42260;SDS011;27926;48.062;7.474;2022-11-23T03:24:02;21.63;;;3.47;;
42260;SDS011;27926;48.062;7.474;2022-11-23T03:26:27;16.63;;;4.80;;
42260;SDS011;27926;48.062;7.474;2022-11-23T03:28:51;10.35;;;2.08;;
42260;SDS011;27926;48.062;7.474;2022-11-23T03:31:16;13.10;;;2.08;;
42260;SDS011;27926;48.062;7.474;2022-11-23T03:33:41;7.53;;;1.63;;
42260;SDS011;27926;48.062;7.474;2022-11-23T03:36:05;15.20;;;2.38;;
42260;SDS011;27926;48.062;7.474;2022-11-23T03:38:30;14.57;;;1.77;;
42260;SDS011;27926;48.062;7.474;2022-11-23T03:40:55;7.95;;;1.23;;
42260;SDS011;27926;48.062;7.474;2022-11-23T03:43:20;10.98;;;2.40;;
42260;SDS011;27926;48.062;7.474;2022-11-23T03:45:44;10.80;;;1.73;;
42260;SDS011;27926;48.062;7.474;2022-11-23T03:48:09;7.78;;;1.48;;
42260;SDS011;27926;48.062;7.474;2022-11-23T03:50:34;12.00;;;2.20;;
42260;SDS011;27926;48.062;7.474;2022-11-23T03:52:59;15.35;;;1.92;;
42260;SDS011;27926;48.062;7.474;2022-11-23T03:55:23;9.80;;;1.85;;
42260;SDS011;27926;48.062;7.474;2022-11-23T03:57:48;9.77;;;2.08;;
42260;SDS011;27926;48.062;7.474;2022-11-23T04:00:13;8.00;;;1.42;;
42260;SDS011;27926;48.062;7.474;2022-11-23T04:02:38;7.57;;;1.55;;
42260;SDS011;27926;48.062;7.474;2022-11-23T04:05:03;6.50;;;1.85;;
42260;SDS011;27926;48.062;7.474;2022-11-23T04:07:28;15.80;;;1.75;;
42260;SDS011;27926;48.062;7.474;2022-11-23T04:09:52;5.05;;;1.92;;
42260;SDS011;27926;48.062;7.474;2022-11-23T04:12:17;12.85;;;2.40;;
42260;SDS011;27926;48.062;7.474;2022-11-23T04:14:42;7.00;;;1.52;;
42260;SDS011;27926;48.062;7.474;2022-11-23T04:17:07;12.05;;;1.83;;
42260;SDS011;27926;48.062;7.474;2022-11-23T04:19:31;4.40;;;1.60;;
42260;SDS011;27926;48.062;7.474;2022-11-23T04:21:56;7.10;;;2.08;;
42260;SDS011;27926;48.062;7.474;2022-11-23T04:24:21;16.20;;;2.10;;
42260;SDS011;27926;48.062;7.474;2022-11-23T04:26:45;9.18;;;1.90;;
42260;SDS011;27926;48.062;7.474;2022-11-23T04:29:10;7.57;;;1.77;;
42260;SDS011;27926;48.062;7.474;2022-11-23T04:31:35;16.73;;;2.22;;
42260;SDS011;27926;48.062;7.474;2022-11-23T04:33:59;13.40;;;2.00;;
42260;SDS011;27926;48.062;7.474;2022-11-23T04:36:24;7.05;;;1.58;;
42260;SDS011;27926;48.062;7.474;2022-11-23T04:38:50;7.63;;;1.85;;
42260;SDS011;27926;48.062;7.474;2022-11-23T04:41:14;3.92;;;1.45;;
42260;SDS011;27926;48.062;7.474;2022-11-23T04:43:39;4.97;;;1.52;;
42260;SDS011;27926;48.062;7.474;2022-11-23T04:46:04;4.05;;;1.30;;
42260;SDS011;27926;48.062;7.474;2022-11-23T04:48:28;6.03;;;1.65;;
42260;SDS011;27926;48.062;7.474;2022-11-23T04:50:54;9.35;;;1.88;;
42260;SDS011;27926;48.062;7.474;2022-11-23T04:53:19;6.53;;;1.60;;
42260;SDS011;27926;48.062;7.474;2022-11-23T04:55:45;13.45;;;1.60;;
42260;SDS011;27926;48.062;7.474;2022-11-23T04:58:10;9.77;;;1.75;;
42260;SDS011;27926;48.062;7.474;2022-11-23T05:00:34;5.03;;;1.60;;
42260;SDS011;27926;48.062;7.474;2022-11-23T05:02:59;8.40;;;1.48;;
42260;SDS011;27926;48.062;7.474;2022-11-23T05:05:24;3.70;;;1.43;;
42260;SDS011;27926;48.062;7.474;2022-11-23T05:07:49;9.35;;;1.85;;
42260;SDS011;27926;48.062;7.474;2022-11-23T05:10:14;6.78;;;1.30;;
42260;SDS011;27926;48.062;7.474;2022-11-23T05:12:38;16.38;;;3.72;;
42260;SDS011;27926;48.062;7.474;2022-11-23T05:15:03;6.65;;;2.70;;
42260;SDS011;27926;48.062;7.474;2022-11-23T05:17:28;6.22;;;1.50;;
42260;SDS011;27926;48.062;7.474;2022-11-23T05:19:53;9.77;;;2.03;;
42260;SDS011;27926;48.062;7.474;2022-11-23T05:22:19;8.82;;;2.08;;
42260;SDS011;27926;48.062;7.474;2022-11-23T05:24:43;3.97;;;1.43;;
42260;SDS011;27926;48.062;7.474;2022-11-23T05:27:08;11.82;;;1.15;;
42260;SDS011;27926;48.062;7.474;2022-11-23T05:29:32;10.80;;;1.53;;
42260;SDS011;27926;48.062;7.474;2022-11-23T05:31:57;11.97;;;1.57;;
42260;SDS011;27926;48.062;7.474;2022-11-23T05:34:22;10.40;;;1.70;;
42260;SDS011;27926;48.062;7.474;2022-11-23T05:36:46;8.63;;;1.87;;
42260;SDS011;27926;48.062;7.474;2022-11-23T05:39:11;11.95;;;1.50;;
42260;SDS011;27926;48.062;7.474;2022-11-23T05:41:35;8.18;;;1.65;;
42260;SDS011;27926;48.062;7.474;2022-11-23T05:44:00;5.05;;;1.75;;
42260;SDS011;27926;48.062;7.474;2022-11-23T05:46:25;5.05;;;1.92;;
42260;SDS011;27926;48.062;7.474;2022-11-23T05:48:49;5.72;;;1.60;;
42260;SDS011;27926;48.062;7.474;2022-11-23T05:51:14;9.50;;;2.07;;
42260;SDS011;27926;48.062;7.474;2022-11-23T05:53:38;6.72;;;1.67;;
42260;SDS011;27926;48.062;7.474;2022-11-23T05:56:03;6.75;;;1.80;;
42260;SDS011;27926;48.062;7.474;2022-11-23T05:58:28;9.73;;;1.70;;
42260;SDS011;27926;48.062;7.474;2022-11-23T06:00:59;5.43;;;1.57;;
42260;SDS011;27926;48.062;7.474;2022-11-23T06:03:24;3.58;;;1.35;;
42260;SDS011;27926;48.062;7.474;2022-11-23T06:05:49;6.87;;;1.77;;
42260;SDS011;27926;48.062;7.474;2022-11-23T06:08:13;10.95;;;2.10;;
42260;SDS011;27926;48.062;7.474;2022-11-23T06:10:38;6.35;;;1.17;;
42260;SDS011;27926;48.062;7.474;2022-11-23T06:13:03;8.82;;;1.48;;
42260;SDS011;27926;48.062;7.474;2022-11-23T06:15:27;11.77;;;1.90;;
42260;SDS011;27926;48.062;7.474;2022-11-23T06:17:52;17.60;;;2.73;;
42260;SDS011;27926;48.062;7.474;2022-11-23T06:20:17;6.63;;;1.95;;
42260;SDS011;27926;48.062;7.474;2022-11-23T06:22:41;6.90;;;2.15;;
42260;SDS011;27926;48.062;7.474;2022-11-23T06:25:06;11.90;;;2.40;;
42260;SDS011;27926;48.062;7.474;2022-11-23T06:27:31;9.87;;;2.10;;
42260;SDS011;27926;48.062;7.474;2022-11-23T06:29:55;5.77;;;1.30;;
42260;SDS011;27926;48.062;7.474;2022-11-23T06:32:20;16.13;;;2.00;;
42260;SDS011;27926;48.062;7.474;2022-11-23T06:34:44;9.27;;;2.57;;
42260;SDS011;27926;48.062;7.474;2022-11-23T06:37:09;8.82;;;2.20;;
42260;SDS011;27926;48.062;7.474;2022-11-23T06:39:34;9.93;;;3.60;;
42260;SDS011;27926;48.062;7.474;2022-11-23T06:41:58;14.32;;;2.83;;
42260;SDS011;27926;48.062;7.474;2022-11-23T06:44:23;11.27;;;2.72;;
42260;SDS011;27926;48.062;7.474;2022-11-23T06:46:48;10.63;;;1.70;;
42260;SDS011;27926;48.062;7.474;2022-11-23T06:49:13;13.00;;;1.80;;
42260;SDS011;27926;48.062;7.474;2022-11-23T06:51:37;16.03;;;1.87;;
42260;SDS011;27926;48.062;7.474;2022-11-23T06:54:02;4.82;;;1.50;;
42260;SDS011;27926;48.062;7.474;2022-11-23T06:56:27;3.83;;;1.53;;
42260;SDS011;27926;48.062;7.474;2022-11-23T06:58:51;11.07;;;2.17;;
42260;SDS011;27926;48.062;7.474;2022-11-23T07:01:16;9.15;;;2.00;;
42260;SDS011;27926;48.062;7.474;2022-11-23T07:03:40;21.05;;;3.42;;
42260;SDS011;27926;48.062;7.474;2022-11-23T07:06:05;6.97;;;2.47;;
42260;SDS011;27926;48.062;7.474;2022-11-23T07:08:31;7.93;;;2.60;;
42260;SDS011;27926;48.062;7.474;2022-11-23T07:11:00;9.73;;;1.80;;
42260;SDS011;27926;48.062;7.474;2022-11-23T07:13:25;8.85;;;2.25;;
42260;SDS011;27926;48.062;7.474;2022-11-23T07:15:50;20.33;;;2.60;;
42260;SDS011;27926;48.062;7.474;2022-11-23T07:18:15;9.20;;;2.75;;
42260;SDS011;27926;48.062;7.474;2022-11-23T07:20:39;12.53;;;3.07;;
42260;SDS011;27926;48.062;7.474;2022-11-23T07:23:05;17.37;;;3.43;;
42260;SDS011;27926;48.062;7.474;2022-11-23T07:25:31;15.98;;;3.40;;
42260;SDS011;27926;48.062;7.474;2022-11-23T07:27:58;14.18;;;3.78;;
42260;SDS011;27926;48.062;7.474;2022-11-23T07:30:25;9.60;;;3.10;;
42260;SDS011;27926;48.062;7.474;2022-11-23T07:35:15;9.32;;;2.05;;
42260;SDS011;27926;48.062;7.474;2022-11-23T07:37:41;9.32;;;3.00;;
42260;SDS011;27926;48.062;7.474;2022-11-23T07:40:06;6.93;;;2.75;;
42260;SDS011;27926;48.062;7.474;2022-11-23T07:42:31;11.45;;;2.67;;
42260;SDS011;27926;48.062;7.474;2022-11-23T07:44:55;9.35;;;3.53;;
42260;SDS011;27926;48.062;7.474;2022-11-23T07:47:20;16.67;;;4.37;;
42260;SDS011;27926;48.062;7.474;2022-11-23T07:49:45;18.70;;;2.80;;
42260;SDS011;27926;48.062;7.474;2022-11-23T07:52:09;10.88;;;2.58;;
42260;SDS011;27926;48.062;7.474;2022-11-23T07:54:34;11.27;;;3.25;;
42260;SDS011;27926;48.062;7.474;2022-11-23T07:56:58;12.63;;;3.07;;
42260;SDS011;27926;48.062;7.474;2022-11-23T07:59:23;10.60;;;2.97;;
42260;SDS011;27926;48.062;7.474;2022-11-23T08:01:47;11.70;;;2.83;;
42260;SDS011;27926;48.062;7.474;2022-11-23T08:04:12;11.67;;;2.80;;
42260;SDS011;27926;48.062;7.474;2022-11-23T08:06:37;11.87;;;3.70;;
42260;SDS011;27926;48.062;7.474;2022-11-23T08:09:01;14.20;;;3.58;;
42260;SDS011;27926;48.062;7.474;2022-11-23T08:11:26;9.53;;;3.83;;
42260;SDS011;27926;48.062;7.474;2022-11-23T08:13:50;16.15;;;3.25;;
42260;SDS011;27926;48.062;7.474;2022-11-23T08:16:15;12.80;;;3.22;;
42260;SDS011;27926;48.062;7.474;2022-11-23T08:18:39;16.05;;;4.10;;
42260;SDS011;27926;48.062;7.474;2022-11-23T08:21:04;23.02;;;4.03;;
42260;SDS011;27926;48.062;7.474;2022-11-23T08:23:29;13.37;;;3.93;;
42260;SDS011;27926;48.062;7.474;2022-11-23T08:25:54;11.53;;;3.67;;
42260;SDS011;27926;48.062;7.474;2022-11-23T08:28:18;15.95;;;4.53;;
42260;SDS011;27926;48.062;7.474;2022-11-23T08:30:44;6.57;;;3.10;;
42260;SDS011;27926;48.062;7.474;2022-11-23T08:33:09;19.52;;;3.50;;
42260;SDS011;27926;48.062;7.474;2022-11-23T08:35:39;11.98;;;3.55;;
42260;SDS011;27926;48.062;7.474;2022-11-23T08:38:04;12.02;;;3.97;;
42260;SDS011;27926;48.062;7.474;2022-11-23T08:40:30;9.43;;;3.53;;
42260;SDS011;27926;48.062;7.474;2022-11-23T08:42:55;10.80;;;3.33;;
42260;SDS011;27926;48.062;7.474;2022-11-23T08:45:20;12.18;;;3.83;;
42260;SDS011;27926;48.062;7.474;2022-11-23T08:47:47;13.57;;;3.92;;
42260;SDS011;27926;48.062;7.474;2022-11-23T08:50:12;11.98;;;3.28;;
42260;SDS011;27926;48.062;7.474;2022-11-23T08:52:37;7.32;;;3.22;;
42260;SDS011;27926;48.062;7.474;2022-11-23T08:55:02;6.85;;;3.13;;
42260;SDS011;27926;48.062;7.474;2022-11-23T08:57:27;11.90;;;3.05;;
42260;SDS011;27926;48.062;7.474;2022-11-23T08:59:52;8.68;;;3.22;;
42260;SDS011;27926;48.062;7.474;2022-11-23T09:02:16;8.45;;;3.03;;
42260;SDS011;27926;48.062;7.474;2022-11-23T09:04:41;8.75;;;2.97;;
42260;SDS011;27926;48.062;7.474;2022-11-23T09:07:06;22.05;;;3.13;;
42260;SDS011;27926;48.062;7.474;2022-11-23T09:09:31;11.60;;;3.17;;
42260;SDS011;27926;48.062;7.474;2022-11-23T09:11:56;10.75;;;3.30;;
42260;SDS011;27926;48.062;7.474;2022-11-23T09:14:20;11.05;;;3.60;;
42260;SDS011;27926;48.062;7.474;2022-11-23T09:16:46;6.50;;;2.65;;
42260;SDS011;27926;48.062;7.474;2022-11-23T09:19:11;9.40;;;2.90;;
42260;SDS011;27926;48.062;7.474;2022-11-23T09:21:37;7.15;;;2.70;;
42260;SDS011;27926;48.062;7.474;2022-11-23T09:24:02;11.77;;;2.75;;
42260;SDS011;27926;48.062;7.474;2022-11-23T09:26:27;12.52;;;2.90;;
42260;SDS011;27926;48.062;7.474;2022-11-23T09:28:53;5.50;;;2.40;;
42260;SDS011;27926;48.062;7.474;2022-11-23T09:31:18;16.35;;;2.97;;
42260;SDS011;27926;48.062;7.474;2022-11-23T09:33:42;8.20;;;2.20;;
42260;SDS011;27926;48.062;7.474;2022-11-23T09:36:07;9.68;;;3.20;;
42260;SDS011;27926;48.062;7.474;2022-11-23T09:38:32;11.85;;;3.92;;
42260;SDS011;27926;48.062;7.474;2022-11-23T09:43:40;8.00;;;2.92;;
42260;SDS011;27926;48.062;7.474;2022-11-23T09:49:25;5.60;;;2.40;;
42260;SDS011;27926;48.062;7.474;2022-11-23T09:52:19;3.53;;;2.20;;
42260;SDS011;27926;48.062;7.474;2022-11-23T09:54:47;9.02;;;2.50;;
42260;SDS011;27926;48.062;7.474;2022-11-23T09:57:20;9.95;;;3.00;;
42260;SDS011;27926;48.062;7.474;2022-11-23T09:59:51;6.55;;;2.55;;
42260;SDS011;27926;48.062;7.474;2022-11-23T10:02:38;13.32;;;2.72;;
42260;SDS011;27926;48.062;7.474;2022-11-23T10:05:04;6.15;;;2.47;;
42260;SDS011;27926;48.062;7.474;2022-11-23T10:10:35;14.80;;;2.45;;
42260;SDS011;27926;48.062;7.474;2022-11-23T10:13:26;5.30;;;2.47;;
42260;SDS011;27926;48.062;7.474;2022-11-23T10:24:12;6.82;;;1.83;;
42260;SDS011;27926;48.062;7.474;2022-11-23T10:26:43;3.13;;;1.30;;
42260;SDS011;27926;48.062;7.474;2022-11-23T10:31:51;6.65;;;1.77;;
42260;SDS011;27926;48.062;7.474;2022-11-23T10:35:04;5.05;;;1.65;;
42260;SDS011;27926;48.062;7.474;2022-11-23T10:37:20;9.23;;;1.25;;
42260;SDS011;27926;48.062;7.474;2022-11-23T10:39:44;4.88;;;1.75;;
42260;SDS011;27926;48.062;7.474;2022-11-23T10:42:29;5.88;;;1.23;;
42260;SDS011;27926;48.062;7.474;2022-11-23T10:45:16;6.97;;;2.85;;
42260;SDS011;27926;48.062;7.474;2022-11-23T10:47:51;5.20;;;1.45;;
42260;SDS011;27926;48.062;7.474;2022-11-23T10:52:54;5.60;;;1.35;;
42260;SDS011;27926;48.062;7.474;2022-11-23T10:55:28;2.00;;;1.00;;
42260;SDS011;27926;48.062;7.474;2022-11-23T10:57:57;11.68;;;1.65;;
42260;SDS011;27926;48.062;7.474;2022-11-23T11:00:26;5.50;;;0.75;;
42260;SDS011;27926;48.062;7.474;2022-11-23T11:02:52;3.80;;;0.98;;
42260;SDS011;27926;48.062;7.474;2022-11-23T11:07:52;2.83;;;0.68;;
42260;SDS011;27926;48.062;7.474;2022-11-23T11:13:03;5.13;;;0.70;;
42260;SDS011;27926;48.062;7.474;2022-11-23T11:15:55;1.40;;;0.77;;
42260;SDS011;27926;48.062;7.474;2022-11-23T11:18:29;0.77;;;0.47;;
42260;SDS011;27926;48.062;7.474;2022-11-23T11:21:00;5.15;;;1.05;;
42260;SDS011;27926;48.062;7.474;2022-11-23T11:23:30;6.90;;;0.82;;
42260;SDS011;27926;48.062;7.474;2022-11-23T11:26:08;6.35;;;0.93;;
42260;SDS011;27926;48.062;7.474;2022-11-23T11:28:40;2.38;;;0.60;;
42260;SDS011;27926;48.062;7.474;2022-11-23T11:36:38;6.30;;;1.13;;
42260;SDS011;27926;48.062;7.474;2022-11-23T11:39:34;2.20;;;0.60;;
42260;SDS011;27926;48.062;7.474;2022-11-23T11:42:01;6.10;;;0.98;;
42260;SDS011;27926;48.062;7.474;2022-11-23T11:44:35;2.20;;;0.70;;
42260;SDS011;27926;48.062;7.474;2022-11-23T11:47:48;0.80;;;0.47;;
42260;SDS011;27926;48.062;7.474;2022-11-23T11:49:55;6.45;;;1.05;;
42260;SDS011;27926;48.062;7.474;2022-11-23T11:52:25;2.88;;;0.75;;
42260;SDS011;27926;48.062;7.474;2022-11-23T11:55:16;3.75;;;0.63;;
42260;SDS011;27926;48.062;7.474;2022-11-23T11:57:47;2.30;;;0.50;;
42260;SDS011;27926;48.062;7.474;2022-11-23T12:00:16;3.70;;;1.10;;
42260;SDS011;27926;48.062;7.474;2022-11-23T12:02:47;4.60;;;0.68;;
42260;SDS011;27926;48.062;7.474;2022-11-23T12:05:35;1.48;;;0.70;;
42260;SDS011;27926;48.062;7.474;2022-11-23T12:08:20;2.35;;;1.02;;
42260;SDS011;27926;48.062;7.474;2022-11-23T12:10:57;6.45;;;1.15;;
42260;SDS011;27926;48.062;7.474;2022-11-23T12:13:26;4.40;;;1.05;;
42260;SDS011;27926;48.062;7.474;2022-11-23T12:16:04;2.05;;;0.63;;
42260;SDS011;27926;48.062;7.474;2022-11-23T12:35:47;2.35;;;0.73;;
42260;SDS011;27926;48.062;7.474;2022-11-23T12:49:32;3.40;;;0.88;;
42260;SDS011;27926;48.062;7.474;2022-11-23T12:58:03;1.80;;;0.70;;
42260;SDS011;27926;48.062;7.474;2022-11-23T13:00:36;0.68;;;0.40;;
42260;SDS011;27926;48.062;7.474;2022-11-23T13:13:53;4.85;;;0.73;;
42260;SDS011;27926;48.062;7.474;2022-11-23T13:21:34;5.45;;;1.10;;
42260;SDS011;27926;48.062;7.474;2022-11-23T13:24:22;2.13;;;0.80;;
42260;SDS011;27926;48.062;7.474;2022-11-23T13:29:45;2.67;;;0.82;;
42260;SDS011;27926;48.062;7.474;2022-11-23T13:35:52;2.78;;;0.75;;
42260;SDS011;27926;48.062;7.474;2022-11-23T13:40:24;2.35;;;0.68;;
42260;SDS011;27926;48.062;7.474;2022-11-23T13:42:55;3.38;;;0.60;;
42260;SDS011;27926;48.062;7.474;2022-11-23T13:45:28;3.03;;;0.50;;
42260;SDS011;27926;48.062;7.474;2022-11-23T13:48:04;2.38;;;0.63;;
42260;SDS011;27926;48.062;7.474;2022-11-23T13:53:19;2.88;;;0.65;;
42260;SDS011;27926;48.062;7.474;2022-11-23T13:55:50;1.63;;;0.60;;
42260;SDS011;27926;48.062;7.474;2022-11-23T14:06:09;2.88;;;1.02;;
42260;SDS011;27926;48.062;7.474;2022-11-23T14:08:44;2.63;;;0.70;;
42260;SDS011;27926;48.062;7.474;2022-11-23T14:11:11;1.67;;;0.55;;
42260;SDS011;27926;48.062;7.474;2022-11-23T14:13:40;8.57;;;0.90;;
42260;SDS011;27926;48.062;7.474;2022-11-23T14:16:12;9.60;;;0.60;;
42260;SDS011;27926;48.062;7.474;2022-11-23T14:18:49;3.92;;;0.85;;
42260;SDS011;27926;48.062;7.474;2022-11-23T14:26:41;1.73;;;0.63;;
42260;SDS011;27926;48.062;7.474;2022-11-23T14:35:14;5.20;;;0.57;;
42260;SDS011;27926;48.062;7.474;2022-11-23T14:43:14;3.20;;;1.30;;
42260;SDS011;27926;48.062;7.474;2022-11-23T14:45:42;4.13;;;1.40;;
42260;SDS011;27926;48.062;7.474;2022-11-23T14:48:20;2.53;;;1.02;;
42260;SDS011;27926;48.062;7.474;2022-11-23T14:53:37;7.93;;;1.42;;
42260;SDS011;27926;48.062;7.474;2022-11-23T14:56:04;5.70;;;1.60;;
42260;SDS011;27926;48.062;7.474;2022-11-23T14:58:29;4.10;;;1.48;;
42260;SDS011;27926;48.062;7.474;2022-11-23T15:00:59;1.10;;;0.90;;
42260;SDS011;27926;48.062;7.474;2022-11-23T15:03:26;2.72;;;1.05;;
42260;SDS011;27926;48.062;7.474;2022-11-23T15:05:55;3.38;;;1.48;;
42260;SDS011;27926;48.062;7.474;2022-11-23T15:08:31;2.85;;;1.40;;
42260;SDS011;27926;48.062;7.474;2022-11-23T15:11:09;7.93;;;1.52;;
42260;SDS011;27926;48.062;7.474;2022-11-23T15:13:43;3.83;;;1.38;;
42260;SDS011;27926;48.062;7.474;2022-11-23T15:16:10;10.85;;;2.00;;
42260;SDS011;27926;48.062;7.474;2022-11-23T15:18:37;3.50;;;1.60;;
42260;SDS011;27926;48.062;7.474;2022-11-23T15:21:02;7.78;;;1.38;;
42260;SDS011;27926;48.062;7.474;2022-11-23T15:26:11;4.78;;;1.63;;
42260;SDS011;27926;48.062;7.474;2022-11-23T15:28:42;6.43;;;1.83;;
42260;SDS011;27926;48.062;7.474;2022-11-23T15:33:52;7.28;;;1.60;;
42260;SDS011;27926;48.062;7.474;2022-11-23T15:36:38;5.68;;;2.28;;
42260;SDS011;27926;48.062;7.474;2022-11-23T15:39:05;12.25;;;3.15;;
42260;SDS011;27926;48.062;7.474;2022-11-23T15:41:34;4.70;;;1.58;;
42260;SDS011;27926;48.062;7.474;2022-11-23T15:44:00;7.00;;;2.40;;
42260;SDS011;27926;48.062;7.474;2022-11-23T15:46:37;6.53;;;1.70;;
42260;SDS011;27926;48.062;7.474;2022-11-23T15:51:38;8.70;;;2.10;;
42260;SDS011;27926;48.062;7.474;2022-11-23T15:54:05;5.13;;;1.75;;
42260;SDS011;27926;48.062;7.474;2022-11-23T15:56:58;4.80;;;1.30;;
42260;SDS011;27926;48.062;7.474;2022-11-23T16:02:09;9.82;;;1.95;;
42260;SDS011;27926;48.062;7.474;2022-11-23T16:04:44;5.95;;;2.25;;
42260;SDS011;27926;48.062;7.474;2022-11-23T16:07:19;12.02;;;2.90;;
42260;SDS011;27926;48.062;7.474;2022-11-23T16:09:49;7.35;;;1.83;;
42260;SDS011;27926;48.062;7.474;2022-11-23T16:12:19;6.65;;;2.85;;
42260;SDS011;27926;48.062;7.474;2022-11-23T16:14:46;8.45;;;2.63;;
42260;SDS011;27926;48.062;7.474;2022-11-23T16:17:18;8.03;;;2.43;;
42260;SDS011;27926;48.062;7.474;2022-11-23T16:19:47;4.68;;;2.22;;
42260;SDS011;27926;48.062;7.474;2022-11-23T16:22:18;5.53;;;1.90;;
42260;SDS011;27926;48.062;7.474;2022-11-23T16:24:51;8.75;;;1.92;;
42260;SDS011;27926;48.062;7.474;2022-11-23T16:27:24;6.80;;;2.50;;
42260;SDS011;27926;48.062;7.474;2022-11-23T16:29:49;5.35;;;2.22;;
42260;SDS011;27926;48.062;7.474;2022-11-23T16:32:29;7.40;;;2.35;;
42260;SDS011;27926;48.062;7.474;2022-11-23T16:34:55;5.15;;;2.17;;
42260;SDS011;27926;48.062;7.474;2022-11-23T16:37:26;7.45;;;2.45;;
42260;SDS011;27926;48.062;7.474;2022-11-23T16:39:52;5.28;;;2.20;;
42260;SDS011;27926;48.062;7.474;2022-11-23T16:42:17;6.73;;;2.13;;
42260;SDS011;27926;48.062;7.474;2022-11-23T16:44:42;10.43;;;2.53;;
42260;SDS011;27926;48.062;7.474;2022-11-23T16:47:26;7.20;;;1.65;;
42260;SDS011;27926;48.062;7.474;2022-11-23T16:49:51;5.05;;;2.28;;
42260;SDS011;27926;48.062;7.474;2022-11-23T16:52:17;7.40;;;2.08;;
42260;SDS011;27926;48.062;7.474;2022-11-23T16:54:43;5.85;;;1.67;;
42260;SDS011;27926;48.062;7.474;2022-11-23T16:57:13;5.82;;;2.33;;
42260;SDS011;27926;48.062;7.474;2022-11-23T16:59:56;4.85;;;1.63;;
42260;SDS011;27926;48.062;7.474;2022-11-23T17:02:24;11.65;;;2.63;;
42260;SDS011;27926;48.062;7.474;2022-11-23T17:04:48;10.65;;;2.40;;
42260;SDS011;27926;48.062;7.474;2022-11-23T17:07:13;7.35;;;2.20;;